»·PEaware :: AAL786 KLAX-KLAS

AAL786 :: KLAX-KLAS

FLIGHT INFORMATION

Flight Status: Arrived
Operator:
American Airlines
More flights by this operator :: More flights under this callsign
Pilot: Sulaiman S. (16428)
Aircraft: AIRBUS A320
(A320)
More flights by this aircraft type
Origin: KLAX Los Angeles Intl
United States
Destination: KLAS McCarran Intl
United States
More flights between these airports :: More routes between these airports
Route: +OSHNN8 MISEN KEPEC6
File this flight plan on PilotEdge
Remarks:
Altitude:
(Current/Filed)
230ft
Speed:
(Current/Filed)
450kts
Departed: 02-Dec-17 11:54 AM
Arrived: 02-Dec-17 12:39 PM
Distance/Time
Traveled:
205nm/0:45
Distance/Time
To Go:
Arrived

Flight Plot

Page will automatically refresh every two minutes.

Flight plan parsing failed; only flown route is shown


Map Options




Map Legend


Flown Route
Filed Route
Departure Airport
Arrival Airport
Navaid (VOR, NDB)
Fix

Horizontal Profiles

Position Reports

Time Latitude Longitude Heading Altitude Ground
Speed
02-Dec-17 11:34 33.946730 -118.401667 85 124ft 0kts
02-Dec-17 11:35 33.946730 -118.401667 85 124ft 0kts
02-Dec-17 11:36 33.946730 -118.401667 85 124ft 0kts
02-Dec-17 11:37 33.946730 -118.401667 85 124ft 0kts
02-Dec-17 11:38 33.946730 -118.401667 85 124ft 0kts
02-Dec-17 11:39 33.946730 -118.401667 85 124ft 0kts
02-Dec-17 11:40 33.946730 -118.401667 85 124ft 0kts
02-Dec-17 11:41 33.946730 -118.401667 85 124ft 0kts
02-Dec-17 11:42 33.946730 -118.401667 85 124ft 0kts
02-Dec-17 11:43 33.946730 -118.401667 85 124ft 0kts
02-Dec-17 11:44 33.946730 -118.401667 85 124ft 0kts
02-Dec-17 11:45 33.946730 -118.401667 85 124ft 0kts
02-Dec-17 11:46 33.946557 -118.402197 11 124ft 2kts
02-Dec-17 11:47 33.946433 -118.402194 353 124ft 0kts
02-Dec-17 11:48 33.946433 -118.402194 353 124ft 0kts
02-Dec-17 11:49 33.946433 -118.402194 353 124ft 0kts
02-Dec-17 11:50 33.946433 -118.402194 353 124ft 0kts
02-Dec-17 11:51 33.946433 -118.402194 353 124ft 0kts
02-Dec-17 11:52 33.946433 -118.402194 353 124ft 0kts
02-Dec-17 11:53 33.946433 -118.402194 353 124ft 0kts
02-Dec-17 11:54 33.946433 -118.402194 353 124ft 0kts
02-Dec-17 11:55 33.946433 -118.402194 353 124ft 0kts
02-Dec-17 11:56 33.947768 -118.402628 350 124ft 14kts
02-Dec-17 11:57 33.949239 -118.401867 52 122ft 0kts
02-Dec-17 11:58 33.949239 -118.401867 52 122ft 0kts
02-Dec-17 11:59 33.948938 -118.414275 264 204ft 136kts
02-Dec-17 12:00 33.944615 -118.466847 265 2997ft 206kts
02-Dec-17 12:01 33.939666 -118.546846 264 5959ft 267kts
02-Dec-17 12:02 33.925536 -118.634892 231 9544ft 282kts
02-Dec-17 12:03 33.850090 -118.669536 193 11735ft 337kts
02-Dec-17 12:04 33.763316 -118.624312 129 13212ft 378kts
02-Dec-17 12:05 33.699364 -118.522253 120 14662ft 389kts
02-Dec-17 12:06 33.661293 -118.399992 110 16110ft 397kts
02-Dec-17 12:07 33.644085 -118.276644 91 17852ft 411kts
02-Dec-17 12:08 33.673458 -118.145214 47 19573ft 433kts
02-Dec-17 12:09 33.759793 -118.042829 44 21200ft 447kts
02-Dec-17 12:10 33.846881 -117.938780 43 22755ft 456kts
02-Dec-17 12:11 33.937973 -117.829640 43 23101ft 478kts
02-Dec-17 12:12 34.031496 -117.717310 43 23156ft 481kts
02-Dec-17 12:13 34.123574 -117.606370 43 23156ft 481kts
02-Dec-17 12:14 34.217662 -117.492613 43 23121ft 483kts
02-Dec-17 12:15 34.312297 -117.377807 43 23158ft 483kts
02-Dec-17 12:16 34.406165 -117.263550 43 23156ft 485kts
02-Dec-17 12:17 34.500972 -117.147757 43 23157ft 485kts
02-Dec-17 12:18 34.595608 -117.031779 43 23157ft 485kts
02-Dec-17 12:19 34.690167 -116.915491 43 23128ft 487kts
02-Dec-17 12:20 34.785134 -116.798299 43 23131ft 487kts
02-Dec-17 12:21 34.879821 -116.681045 43 23130ft 488kts
02-Dec-17 12:22 34.974793 -116.562998 43 23158ft 490kts
02-Dec-17 12:23 35.070286 -116.443901 43 22779ft 488kts
02-Dec-17 12:24 35.161620 -116.334079 43 20180ft 473kts
02-Dec-17 12:25 35.250688 -116.226863 47 18887ft 425kts
02-Dec-17 12:26 35.327608 -116.127878 47 17901ft 380kts
02-Dec-17 12:27 35.398373 -116.037099 47 16698ft 392kts
02-Dec-17 12:28 35.475626 -115.937788 47 15944ft 418kts
02-Dec-17 12:29 35.558015 -115.831733 46 14711ft 437kts
02-Dec-17 12:30 35.640538 -115.725315 46 13086ft 424kts
02-Dec-17 12:31 35.729238 -115.658578 16 13030ft 346kts
02-Dec-17 12:32 35.815384 -115.625002 16 13010ft 320kts
02-Dec-17 12:33 35.899860 -115.591727 16 12938ft 321kts
02-Dec-17 12:34 35.976507 -115.544666 61 12067ft 305kts
02-Dec-17 12:35 36.007560 -115.449028 67 11288ft 300kts
02-Dec-17 12:36 36.029656 -115.354965 95 10736ft 274kts
02-Dec-17 12:37 36.022937 -115.263733 96 9697ft 269kts
02-Dec-17 12:38 36.016510 -115.174500 95 8663ft 262kts
02-Dec-17 12:39 36.010750 -115.087927 94 8015ft 239kts
02-Dec-17 12:40 36.009933 -115.009802 62 7638ft 213kts
02-Dec-17 12:41 36.059523 -115.002412 316 6044ft 204kts
02-Dec-17 12:42 36.074061 -115.064340 272 3874ft 188kts
02-Dec-17 12:43 36.073762 -115.124429 269 2122ft 146kts
02-Dec-17 12:44 36.074380 -115.145159 298 2101ft 0kts
02-Dec-17 12:45 36.076854 -115.146549 0 2102ft 3kts
02-Dec-17 12:46 36.077486 -115.146672 335 2101ft 14kts
02-Dec-17 12:47 36.078826 -115.151550 269 2117ft 26kts
02-Dec-17 12:48 36.083874 -115.156256 335 2123ft 25kts
02-Dec-17 12:49 36.084907 -115.154974 47 2116ft 5kts
02-Dec-17 12:50 36.084982 -115.154874 46 2115ft 0kts
02-Dec-17 12:51 36.084982 -115.154874 46 2115ft 0kts

Navigation Log

Ident Type
Flight plan parsing failed, navigation log unavailable